createdAt,value
2022-10-16T00:01:39.350Z,10.02
2022-10-16T00:04:40.151Z,10.01
2022-10-16T00:07:06.731Z,9.99
2022-10-16T00:09:34.725Z,9.96
2022-10-16T00:12:04.863Z,9.94
2022-10-16T00:14:31.466Z,10.00
2022-10-16T00:16:58.084Z,10.13
2022-10-16T00:19:25.660Z,10.18
2022-10-16T00:21:55.104Z,10.23
2022-10-16T00:24:21.760Z,10.41
2022-10-16T00:26:50.800Z,10.56
2022-10-16T00:29:17.446Z,10.41
2022-10-16T00:31:46.658Z,10.28
2022-10-16T00:34:17.575Z,10.43
2022-10-16T00:36:46.374Z,10.33
2022-10-16T00:39:13.094Z,10.28
2022-10-16T00:41:53.799Z,10.24
2022-10-16T00:45:01.153Z,10.26
2022-10-16T00:47:38.171Z,10.22
2022-10-16T00:50:10.427Z,10.21
2022-10-16T00:52:37.942Z,10.23
2022-10-16T00:55:05.962Z,10.20
2022-10-16T00:57:32.490Z,10.14
2022-10-16T00:59:59.857Z,10.20
2022-10-16T01:02:26.679Z,10.20
2022-10-16T01:04:56.993Z,10.21
2022-10-16T01:07:45.330Z,10.59
2022-10-16T01:10:58.229Z,10.35
2022-10-16T01:13:36.716Z,10.40
2022-10-16T01:16:09.563Z,10.35
2022-10-16T01:18:40.795Z,10.36
2022-10-16T01:21:11.040Z,10.39
2022-10-16T01:23:40.392Z,10.28
2022-10-16T01:26:21.932Z,10.28
2022-10-16T01:29:04.275Z,10.25
2022-10-16T01:31:33.403Z,10.11
2022-10-16T01:34:22.021Z,10.03
2022-10-16T01:36:56.526Z,10.05
2022-10-16T01:39:26.685Z,10.04
2022-10-16T01:41:58.062Z,9.97
2022-10-16T01:44:27.579Z,9.95
2022-10-16T01:46:55.186Z,10.11
2022-10-16T01:49:24.497Z,10.45
2022-10-16T01:51:57.307Z,10.62
2022-10-16T01:54:27.025Z,10.63
2022-10-16T01:56:54.472Z,10.60
2022-10-16T01:59:22.684Z,10.63
2022-10-16T02:01:53.840Z,10.69
2022-10-16T02:04:31.662Z,10.88
2022-10-16T02:06:58.596Z,10.92
2022-10-16T02:09:25.563Z,10.99
2022-10-16T02:11:56.270Z,10.90
2022-10-16T02:14:25.618Z,10.88
2022-10-16T02:16:52.403Z,10.74
2022-10-16T02:19:24.723Z,10.63
2022-10-16T02:21:58.616Z,10.73
2022-10-16T02:24:36.335Z,10.53
2022-10-16T02:27:21.153Z,10.42
2022-10-16T02:29:51.440Z,10.30
2022-10-16T02:32:24.197Z,10.18
2022-10-16T02:34:52.386Z,10.14
2022-10-16T02:37:19.759Z,10.04
2022-10-16T02:39:46.298Z,10.08
2022-10-16T02:42:14.555Z,10.09
2022-10-16T02:44:41.265Z,10.02
2022-10-16T02:47:07.924Z,10.18
2022-10-16T02:49:34.672Z,10.17
2022-10-16T02:52:01.341Z,10.08
2022-10-16T02:54:27.940Z,9.89
2022-10-16T02:57:00.492Z,9.96
2022-10-16T02:59:27.141Z,9.91
2022-10-16T03:01:53.690Z,9.87
2022-10-16T03:04:20.262Z,9.86
2022-10-16T03:06:46.873Z,9.92
2022-10-16T03:09:22.091Z,9.85
2022-10-16T03:11:48.726Z,9.67
2022-10-16T03:14:15.368Z,9.59
2022-10-16T03:16:51.128Z,9.57
2022-10-16T03:19:18.641Z,9.67
2022-10-16T03:21:45.718Z,9.65
2022-10-16T03:24:12.304Z,9.69
2022-10-16T03:26:39.000Z,9.67
2022-10-16T03:29:15.570Z,9.69
2022-10-16T03:31:42.205Z,9.67
2022-10-16T03:34:19.078Z,9.66
2022-10-16T03:36:45.742Z,9.66
2022-10-16T03:39:12.289Z,9.62
2022-10-16T03:41:39.002Z,9.58
2022-10-16T03:44:07.750Z,9.66
2022-10-16T03:46:34.478Z,9.60
2022-10-16T03:49:02.938Z,9.64
2022-10-16T03:51:30.555Z,9.67
2022-10-16T03:53:57.184Z,9.69
2022-10-16T03:56:26.001Z,9.61
2022-10-16T03:58:52.709Z,9.65
2022-10-16T04:01:19.309Z,9.60
2022-10-16T04:03:45.975Z,9.61
2022-10-16T04:06:12.539Z,9.56
2022-10-16T04:08:46.239Z,9.54
2022-10-16T04:11:12.988Z,9.53
2022-10-16T04:13:39.582Z,9.48
2022-10-16T04:16:06.356Z,9.45
2022-10-16T04:18:32.944Z,9.57
2022-10-16T04:21:06.848Z,9.51
2022-10-16T04:23:33.609Z,9.51
2022-10-16T04:26:00.648Z,9.57
2022-10-16T04:28:27.764Z,9.55
2022-10-16T04:30:54.504Z,9.52
2022-10-16T04:33:26.114Z,9.65
2022-10-16T04:36:01.090Z,9.72
2022-10-16T04:38:27.792Z,9.83
2022-10-16T04:40:54.514Z,9.80
2022-10-16T04:43:21.595Z,9.77
2022-10-16T04:45:48.268Z,9.78
2022-10-16T04:48:14.882Z,10.06
2022-10-16T04:50:42.180Z,10.09
2022-10-16T04:53:10.008Z,9.99
2022-10-16T04:55:37.211Z,10.17
2022-10-16T04:58:04.057Z,10.30
2022-10-16T05:00:30.706Z,10.48
2022-10-16T05:02:58.067Z,10.52
2022-10-16T05:05:24.922Z,10.53
2022-10-16T05:07:52.174Z,10.44
2022-10-16T05:10:19.063Z,10.35
2022-10-16T05:12:46.058Z,10.32
2022-10-16T05:15:12.967Z,10.30
2022-10-16T05:17:42.543Z,10.27
2022-10-16T05:20:11.814Z,10.31
2022-10-16T05:22:38.655Z,10.29
2022-10-16T05:25:05.700Z,10.27
2022-10-16T05:27:32.461Z,10.26
2022-10-16T05:29:59.021Z,10.43
2022-10-16T05:32:25.661Z,10.34
2022-10-16T05:34:55.113Z,10.32
2022-10-16T05:37:21.727Z,10.52
2022-10-16T05:39:48.312Z,10.62
2022-10-16T05:42:15.614Z,10.45
2022-10-16T05:44:42.296Z,10.40
2022-10-16T05:47:09.688Z,10.48
2022-10-16T05:49:39.072Z,10.41
2022-10-16T05:52:07.954Z,10.43
2022-10-16T05:54:34.514Z,10.39
2022-10-16T05:57:01.194Z,10.35
2022-10-16T05:59:35.230Z,10.78
2022-10-16T06:02:01.816Z,10.84
2022-10-16T06:04:28.544Z,10.87
2022-10-16T06:07:02.561Z,10.97
2022-10-16T06:09:29.389Z,10.97
2022-10-16T06:12:01.169Z,11.31
2022-10-16T06:14:34.204Z,11.33
2022-10-16T06:21:05.859Z,11.33
2022-10-16T06:24:08.417Z,11.38
2022-10-16T06:27:06.078Z,11.44
2022-10-16T06:31:17.754Z,11.64
2022-10-16T06:33:42.148Z,11.77
2022-10-16T06:36:18.336Z,12.03
2022-10-16T06:38:45.128Z,12.17
2022-10-16T06:41:16.847Z,12.35
2022-10-16T06:43:45.138Z,12.46
2022-10-16T06:46:13.194Z,12.32
2022-10-16T06:48:44.769Z,12.33
2022-10-16T06:51:19.270Z,12.40
2022-10-16T06:54:02.386Z,12.35
2022-10-16T06:56:31.726Z,12.31
2022-10-16T06:58:58.458Z,12.40
2022-10-16T07:01:25.643Z,12.60
2022-10-16T07:03:52.586Z,12.77
2022-10-16T07:06:21.062Z,12.95
2022-10-16T07:08:48.699Z,13.07
2022-10-16T07:11:17.988Z,13.05
2022-10-16T07:13:50.742Z,13.00
2022-10-16T07:16:25.907Z,13.27
2022-10-16T07:18:58.554Z,13.36
2022-10-16T07:21:26.667Z,13.50
2022-10-16T07:23:58.678Z,13.78
2022-10-16T07:26:26.839Z,13.44
2022-10-16T07:28:53.785Z,13.51
2022-10-16T07:31:28.220Z,13.81
2022-10-16T07:33:55.236Z,13.65
2022-10-16T07:36:22.404Z,13.84
2022-10-16T07:38:49.559Z,13.91
2022-10-16T07:41:18.308Z,14.00
2022-10-16T07:43:53.199Z,14.12
2022-10-16T07:46:21.113Z,13.98
2022-10-16T07:48:48.276Z,13.88
2022-10-16T07:51:17.262Z,13.90
2022-10-16T07:53:43.995Z,13.85
2022-10-16T07:56:11.720Z,13.65
2022-10-16T07:58:38.383Z,13.61
2022-10-16T08:01:09.889Z,13.51
2022-10-16T08:03:36.992Z,13.58
2022-10-16T08:06:04.495Z,13.64
2022-10-16T08:08:33.723Z,13.82
2022-10-16T08:11:00.420Z,13.97
2022-10-16T08:13:27.616Z,13.90
2022-10-16T08:15:57.392Z,14.15
2022-10-16T08:18:24.138Z,14.13
2022-10-16T08:20:59.446Z,14.12
2022-10-16T08:23:27.105Z,13.97
2022-10-16T08:25:55.063Z,14.03
2022-10-16T08:28:23.281Z,14.13
2022-10-16T08:30:50.037Z,14.09
2022-10-16T08:33:16.786Z,14.05
2022-10-16T08:35:43.356Z,14.19
2022-10-16T08:38:16.107Z,14.14
2022-10-16T08:40:46.542Z,14.21
2022-10-16T08:44:17.345Z,14.23
2022-10-16T08:47:08.945Z,14.28
2022-10-16T08:52:14.382Z,14.31
2022-10-16T08:54:48.490Z,14.49
2022-10-16T08:57:21.549Z,14.63
2022-10-16T09:00:06.513Z,14.68
2022-10-16T09:03:08.657Z,14.64
2022-10-16T09:06:14.167Z,14.67
2022-10-16T09:08:46.719Z,14.76
2022-10-16T09:11:28.676Z,14.87
2022-10-16T09:14:03.377Z,14.86
2022-10-16T09:16:44.314Z,14.83
2022-10-16T09:19:33.353Z,14.88
2022-10-16T09:22:14.193Z,15.14
2022-10-16T09:24:40.817Z,15.29
2022-10-16T09:27:13.663Z,15.26
2022-10-16T09:29:40.393Z,15.35
2022-10-16T09:32:19.607Z,15.33
2022-10-16T09:34:55.272Z,15.49
2022-10-16T09:37:28.712Z,15.51
2022-10-16T09:40:11.523Z,15.51
2022-10-16T09:42:38.331Z,15.28
2022-10-16T09:45:05.804Z,14.90
2022-10-16T09:47:45.827Z,14.76
2022-10-16T09:50:27.481Z,14.85
2022-10-16T09:53:26.539Z,14.85
2022-10-16T09:56:00.763Z,14.99
2022-10-16T09:58:43.304Z,14.89
2022-10-16T10:01:14.856Z,15.09
2022-10-16T10:03:47.655Z,14.97
2022-10-16T10:06:26.688Z,14.94
2022-10-16T10:09:03.456Z,15.10
2022-10-16T10:12:28.902Z,15.04
2022-10-16T10:15:01.681Z,15.38
2022-10-16T10:17:31.865Z,15.47
2022-10-16T10:19:59.589Z,15.47
2022-10-16T10:23:18.746Z,15.47
2022-10-16T10:26:02.001Z,15.41
2022-10-16T10:28:47.166Z,15.36
2022-10-16T10:31:46.430Z,15.63
2022-10-16T10:34:37.388Z,15.47
2022-10-16T10:37:18.918Z,15.44
2022-10-16T10:40:10.917Z,15.33
2022-10-16T10:42:45.787Z,15.21
2022-10-16T10:46:12.190Z,15.28
2022-10-16T10:49:15.413Z,15.08
2022-10-16T10:51:46.189Z,15.18
2022-10-16T10:54:42.195Z,15.08
2022-10-16T10:57:33.852Z,15.08
2022-10-16T11:00:22.015Z,15.08
2022-10-16T11:02:51.574Z,15.16
2022-10-16T11:05:29.350Z,15.19
2022-10-16T11:08:00.284Z,15.30
2022-10-16T11:10:32.020Z,15.47
2022-10-16T11:13:17.926Z,15.58
2022-10-16T11:16:20.625Z,15.80
2022-10-16T11:19:42.873Z,15.87
2022-10-16T11:22:28.878Z,16.06
2022-10-16T11:26:00.852Z,16.13
2022-10-16T11:28:35.827Z,16.29
2022-10-16T11:31:16.153Z,16.41
2022-10-16T11:34:23.176Z,16.52
2022-10-16T11:37:02.837Z,16.47
2022-10-16T11:39:30.880Z,16.54
2022-10-16T11:42:13.195Z,16.24
2022-10-16T11:45:01.251Z,16.17
2022-10-16T11:47:59.925Z,15.85
2022-10-16T11:50:36.212Z,15.71
2022-10-16T11:53:17.459Z,15.60
2022-10-16T11:55:46.987Z,15.57
2022-10-16T11:58:42.300Z,15.57
2022-10-16T12:01:31.238Z,15.58
2022-10-16T12:04:08.401Z,15.65
2022-10-16T12:06:37.922Z,15.57
2022-10-16T12:09:05.162Z,15.57
2022-10-16T12:11:34.246Z,15.51
2022-10-16T12:14:13.174Z,15.71
2022-10-16T12:16:51.279Z,15.59
2022-10-16T12:19:20.360Z,15.79
2022-10-16T12:21:51.650Z,15.82
2022-10-16T12:24:37.575Z,16.22
2022-10-16T12:27:06.990Z,16.37
2022-10-16T12:29:33.497Z,16.25
2022-10-16T12:32:00.262Z,16.39
2022-10-16T12:34:26.804Z,16.50
2022-10-16T12:36:54.792Z,16.27
2022-10-16T12:39:23.938Z,16.24
2022-10-16T12:42:05.247Z,16.71
2022-10-16T12:44:36.329Z,16.38
2022-10-16T12:47:07.137Z,16.35
2022-10-16T12:49:39.612Z,16.25
2022-10-16T12:52:27.144Z,16.09
2022-10-16T12:54:57.313Z,16.07
2022-10-16T12:57:35.525Z,16.01
2022-10-16T13:00:39.616Z,15.68
2022-10-16T13:03:25.415Z,15.73
2022-10-16T13:06:47.535Z,15.62
2022-10-16T13:09:32.309Z,15.78
2022-10-16T13:12:17.127Z,16.00
2022-10-16T13:15:19.876Z,16.20
2022-10-16T13:18:01.492Z,16.11
2022-10-16T13:20:35.388Z,16.12
2022-10-16T13:23:30.268Z,16.39
2022-10-16T13:26:07.280Z,16.29
2022-10-16T13:28:47.835Z,16.28
2022-10-16T13:31:21.645Z,16.28
2022-10-16T13:34:07.525Z,16.17
2022-10-16T13:36:51.162Z,16.15
2022-10-16T13:39:27.495Z,16.22
2022-10-16T13:45:01.170Z,16.04
2022-10-16T13:47:38.616Z,16.00
2022-10-16T13:50:19.190Z,16.07
2022-10-16T13:52:46.127Z,16.08
2022-10-16T13:55:19.446Z,15.86
2022-10-16T13:57:49.489Z,15.67
2022-10-16T14:00:24.810Z,15.68
2022-10-16T14:02:58.764Z,15.82
2022-10-16T14:05:27.990Z,15.89
2022-10-16T14:07:55.014Z,15.66
2022-10-16T14:10:27.789Z,15.53
2022-10-16T14:13:31.976Z,15.48
2022-10-16T14:16:35.366Z,15.51
2022-10-16T14:19:58.609Z,15.68
2022-10-16T14:22:34.932Z,15.52
2022-10-16T14:25:24.819Z,15.52
2022-10-16T14:28:09.086Z,15.87
2022-10-16T14:30:38.515Z,15.73
2022-10-16T14:33:07.079Z,15.57
2022-10-16T14:35:36.347Z,15.63
2022-10-16T14:38:07.300Z,15.39
2022-10-16T14:40:36.894Z,15.24
2022-10-16T14:43:04.485Z,15.26
2022-10-16T14:45:37.167Z,15.13
2022-10-16T14:48:18.859Z,15.16
2022-10-16T14:50:46.794Z,15.35
2022-10-16T14:53:14.284Z,15.26
2022-10-16T14:55:42.015Z,15.23
2022-10-16T14:58:20.559Z,15.10
2022-10-16T15:00:47.582Z,15.05
2022-10-16T15:03:14.609Z,14.89
2022-10-16T15:05:41.238Z,14.90
2022-10-16T15:08:10.318Z,14.90
2022-10-16T15:10:44.219Z,14.83
2022-10-16T15:13:13.832Z,14.70
2022-10-16T15:15:44.274Z,14.47
2022-10-16T15:18:11.007Z,14.65
2022-10-16T15:20:39.323Z,14.48
2022-10-16T15:23:17.835Z,14.22
2022-10-16T15:25:44.403Z,14.03
2022-10-16T15:28:11.883Z,13.87
2022-10-16T15:30:39.105Z,13.73
2022-10-16T15:33:09.716Z,13.61
2022-10-16T15:35:36.313Z,13.53
2022-10-16T15:38:02.843Z,13.52
2022-10-16T15:40:29.503Z,13.51
2022-10-16T15:42:56.210Z,13.60
2022-10-16T15:45:25.288Z,13.56
2022-10-16T15:47:51.898Z,13.62
2022-10-16T15:50:18.679Z,13.48
2022-10-16T15:52:45.331Z,13.29
2022-10-16T15:55:14.172Z,13.19
2022-10-16T15:57:43.527Z,13.11
2022-10-16T16:00:12.736Z,13.03
2022-10-16T16:02:40.029Z,12.94
2022-10-16T16:05:08.889Z,12.86
2022-10-16T16:07:36.549Z,12.81
2022-10-16T16:10:05.719Z,12.71
2022-10-16T16:12:32.862Z,12.59
2022-10-16T16:15:02.012Z,12.52
2022-10-16T16:17:32.409Z,12.49
2022-10-16T16:19:59.458Z,12.45
2022-10-16T16:22:26.573Z,12.43
2022-10-16T16:24:53.442Z,12.47
2022-10-16T16:27:20.902Z,12.50
2022-10-16T16:29:48.296Z,12.57
2022-10-16T16:32:14.919Z,12.64
2022-10-16T16:34:41.593Z,12.64
2022-10-16T16:37:08.501Z,12.71
2022-10-16T16:39:35.525Z,12.69
2022-10-16T16:42:03.919Z,12.74
2022-10-16T16:44:30.829Z,12.71
2022-10-16T16:46:57.420Z,12.78
2022-10-16T16:49:24.302Z,12.79
2022-10-16T16:51:51.008Z,12.80
2022-10-16T16:54:17.718Z,12.84
2022-10-16T16:56:45.279Z,12.85
2022-10-16T16:59:16.162Z,12.83
2022-10-16T17:01:42.894Z,12.87
2022-10-16T17:04:11.201Z,12.86
2022-10-16T17:06:38.239Z,12.85
2022-10-16T17:09:10.418Z,12.81
2022-10-16T17:11:37.031Z,12.81
2022-10-16T17:14:04.152Z,12.85
2022-10-16T17:16:37.966Z,12.87
2022-10-16T17:19:07.403Z,12.88
2022-10-16T17:21:34.491Z,12.90
2022-10-16T17:24:01.543Z,12.91
2022-10-16T17:26:28.664Z,12.93
2022-10-16T17:28:57.120Z,13.02
2022-10-16T17:31:26.558Z,12.98
2022-10-16T17:33:53.356Z,12.93
2022-10-16T17:36:20.624Z,12.91
2022-10-16T17:38:47.475Z,12.89
2022-10-16T17:41:22.077Z,12.87
2022-10-16T17:43:49.063Z,12.79
2022-10-16T17:46:17.448Z,12.77
2022-10-16T17:48:49.214Z,12.76
2022-10-16T17:51:18.472Z,12.72
2022-10-16T17:53:49.007Z,12.72
2022-10-16T17:56:18.085Z,12.69
2022-10-16T17:58:46.591Z,12.66
2022-10-16T18:01:22.438Z,12.66
2022-10-16T18:04:09.649Z,12.67
2022-10-16T18:06:36.936Z,12.65
2022-10-16T18:09:04.308Z,12.63
2022-10-16T18:11:31.166Z,12.63
2022-10-16T18:13:58.717Z,12.58
2022-10-16T18:16:26.508Z,12.53
2022-10-16T18:18:54.555Z,12.50
2022-10-16T18:21:21.403Z,12.45
2022-10-16T18:23:51.700Z,12.39
2022-10-16T18:26:19.089Z,12.33
2022-10-16T18:28:45.785Z,12.32
2022-10-16T18:31:15.051Z,12.30
2022-10-16T18:33:47.978Z,12.36
2022-10-16T18:36:15.222Z,12.44
2022-10-16T18:38:41.913Z,12.47
2022-10-16T18:41:08.500Z,12.55
2022-10-16T18:43:36.389Z,12.59
2022-10-16T18:46:05.761Z,12.61
2022-10-16T18:48:32.662Z,12.64
2022-10-16T18:51:20.045Z,12.68
2022-10-16T18:53:48.980Z,12.69
2022-10-16T18:56:17.749Z,12.74
2022-10-16T18:58:45.429Z,12.80
2022-10-16T19:01:16.439Z,12.85
2022-10-16T19:03:43.603Z,12.91
2022-10-16T19:06:12.134Z,12.87
2022-10-16T19:08:41.652Z,12.84
2022-10-16T19:11:11.470Z,12.74
2022-10-16T19:13:38.336Z,12.67
2022-10-16T19:16:20.015Z,12.67
2022-10-16T19:18:47.735Z,12.65
2022-10-16T19:21:15.441Z,12.73
2022-10-16T19:23:42.499Z,12.78
2022-10-16T19:26:12.075Z,12.83
2022-10-16T19:28:39.415Z,12.81
2022-10-16T19:31:08.678Z,12.85
2022-10-16T19:33:35.359Z,12.93
2022-10-16T19:36:15.722Z,12.90
2022-10-16T19:38:43.081Z,12.88
2022-10-16T19:41:12.445Z,12.88
2022-10-16T19:43:39.412Z,12.89
2022-10-16T19:46:08.311Z,12.89
2022-10-16T19:48:35.071Z,12.84
2022-10-16T19:51:02.007Z,12.93
2022-10-16T19:53:31.403Z,12.92
2022-10-16T19:55:58.403Z,13.02
2022-10-16T19:58:26.182Z,13.02
2022-10-16T20:00:54.746Z,13.05
2022-10-16T20:03:21.715Z,13.05
2022-10-16T20:05:56.612Z,13.02
2022-10-16T20:08:24.382Z,13.06
2022-10-16T20:10:52.663Z,13.02
2022-10-16T20:13:20.708Z,12.95
2022-10-16T20:15:48.131Z,12.92
2022-10-16T20:18:15.297Z,12.94
2022-10-16T20:20:44.237Z,13.10
2022-10-16T20:23:11.536Z,13.35
2022-10-16T20:25:40.041Z,13.63
2022-10-16T20:28:07.833Z,13.52
2022-10-16T20:30:39.250Z,13.81
2022-10-16T20:33:09.285Z,13.79
2022-10-16T20:35:49.481Z,13.77
2022-10-16T20:38:17.348Z,13.78
2022-10-16T20:40:46.237Z,13.72
2022-10-16T20:43:18.291Z,13.83
2022-10-16T20:45:45.828Z,13.89
2022-10-16T20:48:13.806Z,13.99
2022-10-16T20:50:41.203Z,13.99
2022-10-16T20:53:08.376Z,14.19
2022-10-16T20:55:36.876Z,14.14
2022-10-16T20:58:04.899Z,13.99
2022-10-16T21:00:31.697Z,13.83
2022-10-16T21:02:58.416Z,13.76
2022-10-16T21:05:28.706Z,13.68
2022-10-16T21:07:55.797Z,13.60
2022-10-16T21:10:23.040Z,13.71
2022-10-16T21:12:56.045Z,13.78
2022-10-16T21:15:22.982Z,13.67
2022-10-16T21:17:51.333Z,13.59
2022-10-16T21:20:17.937Z,13.49
2022-10-16T21:22:44.759Z,13.36
2022-10-16T21:25:11.413Z,13.33
2022-10-16T21:27:41.275Z,13.31
2022-10-16T21:30:09.827Z,13.16
2022-10-16T21:32:37.669Z,13.08
2022-10-16T21:35:05.272Z,13.07
2022-10-16T21:37:32.516Z,12.98
2022-10-16T21:39:59.092Z,12.88
2022-10-16T21:42:28.766Z,12.88
2022-10-16T21:44:55.466Z,12.81
2022-10-16T21:47:22.146Z,12.77
2022-10-16T21:49:48.792Z,12.86
2022-10-16T21:52:16.107Z,12.82
2022-10-16T21:54:42.795Z,12.83
2022-10-16T21:57:09.406Z,12.86
2022-10-16T21:59:36.029Z,12.81
2022-10-16T22:02:03.217Z,12.81
2022-10-16T22:04:30.105Z,12.87
2022-10-16T22:06:56.675Z,12.93
2022-10-16T22:09:23.316Z,12.93
2022-10-16T22:11:50.896Z,12.92
2022-10-16T22:14:19.209Z,12.94
2022-10-16T22:16:49.045Z,12.92
2022-10-16T22:19:17.909Z,12.87
2022-10-16T22:21:47.141Z,12.85
2022-10-16T22:24:15.139Z,12.86
2022-10-16T22:26:41.737Z,12.78
2022-10-16T22:29:09.632Z,12.85
2022-10-16T22:31:36.374Z,12.82
2022-10-16T22:34:04.100Z,12.74
2022-10-16T22:36:31.113Z,12.68
2022-10-16T22:38:58.669Z,12.61
2022-10-16T22:41:25.390Z,12.61
2022-10-16T22:43:52.481Z,12.56
2022-10-16T22:46:27.186Z,12.59
2022-10-16T22:48:55.899Z,12.62
2022-10-16T22:51:23.474Z,12.63
2022-10-16T22:53:50.698Z,12.72
2022-10-16T22:56:18.681Z,12.79
2022-10-16T22:58:45.509Z,12.80
2022-10-16T23:01:13.559Z,12.85
2022-10-16T23:03:40.216Z,12.95
2022-10-16T23:06:09.409Z,12.94
2022-10-16T23:08:36.058Z,13.05
2022-10-16T23:11:06.554Z,13.12
2022-10-16T23:13:36.135Z,13.09
2022-10-16T23:16:04.340Z,13.21
2022-10-16T23:18:31.561Z,13.23
2022-10-16T23:20:58.155Z,13.20
2022-10-16T23:23:24.789Z,13.27
2022-10-16T23:25:51.373Z,13.21
2022-10-16T23:28:18.005Z,13.50
2022-10-16T23:30:54.896Z,13.54
2022-10-16T23:33:21.444Z,13.59
2022-10-16T23:35:49.472Z,13.56
2022-10-16T23:38:16.172Z,13.61
2022-10-16T23:40:42.734Z,13.77
2022-10-16T23:43:09.349Z,13.71
2022-10-16T23:45:35.910Z,13.84
2022-10-16T23:48:02.496Z,13.65
2022-10-16T23:50:30.449Z,13.84
2022-10-16T23:52:57.081Z,13.86
2022-10-16T23:55:23.709Z,13.78
2022-10-16T23:57:50.409Z,13.72
